sensor_id;sensor_type;location;lat;lon;timestamp;temperature;humidity
43346;DHT22;28937;51.160;4.146;2022-07-17T00:00:45;22.10;62.10
43346;DHT22;28937;51.160;4.146;2022-07-17T00:03:15;22.00;62.30
43346;DHT22;28937;51.160;4.146;2022-07-17T00:05:42;22.00;62.20
43346;DHT22;28937;51.160;4.146;2022-07-17T00:08:09;22.00;62.30
43346;DHT22;28937;51.160;4.146;2022-07-17T00:10:39;22.00;62.20
43346;DHT22;28937;51.160;4.146;2022-07-17T00:13:06;22.00;62.40
43346;DHT22;28937;51.160;4.146;2022-07-17T00:15:32;22.00;62.50
43346;DHT22;28937;51.160;4.146;2022-07-17T00:17:59;22.00;62.50
43346;DHT22;28937;51.160;4.146;2022-07-17T00:20:26;22.10;62.50
43346;DHT22;28937;51.160;4.146;2022-07-17T00:22:52;22.00;62.40
43346;DHT22;28937;51.160;4.146;2022-07-17T00:25:19;22.00;62.60
43346;DHT22;28937;51.160;4.146;2022-07-17T00:27:45;22.00;62.90
43346;DHT22;28937;51.160;4.146;2022-07-17T00:30:11;22.00;62.90
43346;DHT22;28937;51.160;4.146;2022-07-17T00:32:38;21.80;63.00
43346;DHT22;28937;51.160;4.146;2022-07-17T00:35:04;21.90;63.80
43346;DHT22;28937;51.160;4.146;2022-07-17T00:37:30;21.70;63.30
43346;DHT22;28937;51.160;4.146;2022-07-17T00:39:55;21.70;63.60
43346;DHT22;28937;51.160;4.146;2022-07-17T00:42:21;21.60;63.90
43346;DHT22;28937;51.160;4.146;2022-07-17T00:44:46;21.40;64.20
43346;DHT22;28937;51.160;4.146;2022-07-17T00:47:19;21.50;64.30
43346;DHT22;28937;51.160;4.146;2022-07-17T00:49:46;21.60;64.20
43346;DHT22;28937;51.160;4.146;2022-07-17T00:52:13;21.70;64.10
43346;DHT22;28937;51.160;4.146;2022-07-17T00:54:40;21.70;63.90
43346;DHT22;28937;51.160;4.146;2022-07-17T00:57:07;21.70;64.10
43346;DHT22;28937;51.160;4.146;2022-07-17T00:59:34;21.80;64.30
43346;DHT22;28937;51.160;4.146;2022-07-17T01:02:07;21.70;64.10
43346;DHT22;28937;51.160;4.146;2022-07-17T01:04:33;21.70;64.30
43346;DHT22;28937;51.160;4.146;2022-07-17T01:06:59;21.70;64.30
43346;DHT22;28937;51.160;4.146;2022-07-17T01:09:26;21.70;64.30
43346;DHT22;28937;51.160;4.146;2022-07-17T01:11:52;21.70;64.40
43346;DHT22;28937;51.160;4.146;2022-07-17T01:14:18;21.70;64.50
43346;DHT22;28937;51.160;4.146;2022-07-17T01:16:44;21.50;64.80
43346;DHT22;28937;51.160;4.146;2022-07-17T01:19:11;21.40;65.10
43346;DHT22;28937;51.160;4.146;2022-07-17T01:21:38;21.50;65.00
43346;DHT22;28937;51.160;4.146;2022-07-17T01:24:05;21.50;64.80
43346;DHT22;28937;51.160;4.146;2022-07-17T01:26:31;21.50;65.00
43346;DHT22;28937;51.160;4.146;2022-07-17T01:28:56;21.30;65.50
43346;DHT22;28937;51.160;4.146;2022-07-17T01:31:22;21.30;65.70
43346;DHT22;28937;51.160;4.146;2022-07-17T01:33:48;21.30;65.60
43346;DHT22;28937;51.160;4.146;2022-07-17T01:36:14;21.30;65.70
43346;DHT22;28937;51.160;4.146;2022-07-17T01:38:40;21.30;66.10
43346;DHT22;28937;51.160;4.146;2022-07-17T01:41:05;21.30;66.10
43346;DHT22;28937;51.160;4.146;2022-07-17T01:43:31;21.40;66.10
43346;DHT22;28937;51.160;4.146;2022-07-17T01:45:57;21.40;66.30
43346;DHT22;28937;51.160;4.146;2022-07-17T01:48:24;21.20;66.60
43346;DHT22;28937;51.160;4.146;2022-07-17T01:50:49;21.30;66.60
43346;DHT22;28937;51.160;4.146;2022-07-17T01:53:15;21.30;66.60
43346;DHT22;28937;51.160;4.146;2022-07-17T01:55:40;21.30;66.90
43346;DHT22;28937;51.160;4.146;2022-07-17T01:58:06;21.20;67.10
43346;DHT22;28937;51.160;4.146;2022-07-17T02:00:31;21.20;67.20
43346;DHT22;28937;51.160;4.146;2022-07-17T02:02:57;21.20;67.20
43346;DHT22;28937;51.160;4.146;2022-07-17T02:05:23;21.30;67.10
43346;DHT22;28937;51.160;4.146;2022-07-17T02:07:48;21.10;67.10
43346;DHT22;28937;51.160;4.146;2022-07-17T02:10:15;21.10;67.50
43346;DHT22;28937;51.160;4.146;2022-07-17T02:12:42;21.00;67.50
43346;DHT22;28937;51.160;4.146;2022-07-17T02:15:07;21.10;67.40
43346;DHT22;28937;51.160;4.146;2022-07-17T02:17:33;21.20;67.20
43346;DHT22;28937;51.160;4.146;2022-07-17T02:19:59;21.10;67.40
43346;DHT22;28937;51.160;4.146;2022-07-17T02:22:24;21.10;67.40
43346;DHT22;28937;51.160;4.146;2022-07-17T02:24:50;21.10;67.60
43346;DHT22;28937;51.160;4.146;2022-07-17T02:27:15;21.10;67.80
43346;DHT22;28937;51.160;4.146;2022-07-17T02:29:41;21.00;68.00
43346;DHT22;28937;51.160;4.146;2022-07-17T02:32:06;20.90;68.10
43346;DHT22;28937;51.160;4.146;2022-07-17T02:34:32;20.90;68.30
43346;DHT22;28937;51.160;4.146;2022-07-17T02:36:57;20.90;68.20
43346;DHT22;28937;51.160;4.146;2022-07-17T02:39:23;20.80;68.50
43346;DHT22;28937;51.160;4.146;2022-07-17T02:41:49;20.70;68.80
43346;DHT22;28937;51.160;4.146;2022-07-17T02:44:14;20.70;69.00
43346;DHT22;28937;51.160;4.146;2022-07-17T02:46:40;20.70;68.90
43346;DHT22;28937;51.160;4.146;2022-07-17T02:49:05;20.80;68.70
43346;DHT22;28937;51.160;4.146;2022-07-17T02:51:31;20.80;69.00
43346;DHT22;28937;51.160;4.146;2022-07-17T02:53:57;20.80;69.10
43346;DHT22;28937;51.160;4.146;2022-07-17T02:56:22;20.90;68.90
43346;DHT22;28937;51.160;4.146;2022-07-17T02:58:48;20.80;69.10
43346;DHT22;28937;51.160;4.146;2022-07-17T03:01:13;20.80;69.20
43346;DHT22;28937;51.160;4.146;2022-07-17T03:03:39;20.90;69.20
43346;DHT22;28937;51.160;4.146;2022-07-17T03:06:05;20.90;69.10
43346;DHT22;28937;51.160;4.146;2022-07-17T03:08:31;20.90;69.10
43346;DHT22;28937;51.160;4.146;2022-07-17T03:10:56;20.80;69.20
43346;DHT22;28937;51.160;4.146;2022-07-17T03:13:22;20.80;69.30
43346;DHT22;28937;51.160;4.146;2022-07-17T03:15:47;20.70;69.80
43346;DHT22;28937;51.160;4.146;2022-07-17T03:18:13;20.80;69.50
43346;DHT22;28937;51.160;4.146;2022-07-17T03:20:39;20.80;69.30
43346;DHT22;28937;51.160;4.146;2022-07-17T03:23:04;20.80;69.60
43346;DHT22;28937;51.160;4.146;2022-07-17T03:25:30;20.50;70.00
43346;DHT22;28937;51.160;4.146;2022-07-17T03:27:56;20.50;70.10
43346;DHT22;28937;51.160;4.146;2022-07-17T03:30:22;20.40;70.30
43346;DHT22;28937;51.160;4.146;2022-07-17T03:32:47;20.40;70.50
43346;DHT22;28937;51.160;4.146;2022-07-17T03:35:13;20.50;70.30
43346;DHT22;28937;51.160;4.146;2022-07-17T03:37:38;20.50;70.50
43346;DHT22;28937;51.160;4.146;2022-07-17T03:40:05;20.50;70.40
43346;DHT22;28937;51.160;4.146;2022-07-17T03:42:32;20.50;70.20
43346;DHT22;28937;51.160;4.146;2022-07-17T03:44:57;20.60;70.00
43346;DHT22;28937;51.160;4.146;2022-07-17T03:47:23;20.60;70.00
43346;DHT22;28937;51.160;4.146;2022-07-17T03:49:48;20.60;70.20
43346;DHT22;28937;51.160;4.146;2022-07-17T03:52:14;20.60;70.20
43346;DHT22;28937;51.160;4.146;2022-07-17T03:54:39;20.60;70.10
43346;DHT22;28937;51.160;4.146;2022-07-17T03:57:05;20.50;70.30
43346;DHT22;28937;51.160;4.146;2022-07-17T03:59:31;20.30;71.40
43346;DHT22;28937;51.160;4.146;2022-07-17T04:01:56;20.30;71.10
43346;DHT22;28937;51.160;4.146;2022-07-17T04:04:22;20.20;71.00
43346;DHT22;28937;51.160;4.146;2022-07-17T04:06:47;20.30;71.70
43346;DHT22;28937;51.160;4.146;2022-07-17T04:09:13;20.40;70.80
43346;DHT22;28937;51.160;4.146;2022-07-17T04:11:38;20.30;71.00
43346;DHT22;28937;51.160;4.146;2022-07-17T04:14:04;20.30;71.10
43346;DHT22;28937;51.160;4.146;2022-07-17T04:16:30;20.30;71.00
43346;DHT22;28937;51.160;4.146;2022-07-17T04:18:55;20.40;70.90
43346;DHT22;28937;51.160;4.146;2022-07-17T04:21:21;20.40;70.90
43346;DHT22;28937;51.160;4.146;2022-07-17T04:23:46;20.30;71.20
43346;DHT22;28937;51.160;4.146;2022-07-17T04:26:12;20.30;71.30
43346;DHT22;28937;51.160;4.146;2022-07-17T04:28:40;20.30;71.40
43346;DHT22;28937;51.160;4.146;2022-07-17T04:31:06;20.20;71.70
43346;DHT22;28937;51.160;4.146;2022-07-17T04:33:33;20.10;71.80
43346;DHT22;28937;51.160;4.146;2022-07-17T04:35:58;20.20;71.70
43346;DHT22;28937;51.160;4.146;2022-07-17T04:38:24;20.20;71.50
43346;DHT22;28937;51.160;4.146;2022-07-17T04:40:49;20.10;71.90
43346;DHT22;28937;51.160;4.146;2022-07-17T04:43:15;20.00;71.90
43346;DHT22;28937;51.160;4.146;2022-07-17T04:45:41;20.00;72.10
43346;DHT22;28937;51.160;4.146;2022-07-17T04:48:06;20.10;72.10
43346;DHT22;28937;51.160;4.146;2022-07-17T04:50:32;20.10;71.80
43346;DHT22;28937;51.160;4.146;2022-07-17T04:52:58;20.10;71.70
43346;DHT22;28937;51.160;4.146;2022-07-17T04:55:25;20.10;71.70
43346;DHT22;28937;51.160;4.146;2022-07-17T04:57:51;20.20;71.60
43346;DHT22;28937;51.160;4.146;2022-07-17T05:00:17;20.00;71.70
43346;DHT22;28937;51.160;4.146;2022-07-17T05:02:43;20.10;71.80
43346;DHT22;28937;51.160;4.146;2022-07-17T05:05:08;20.00;72.10
43346;DHT22;28937;51.160;4.146;2022-07-17T05:07:34;20.10;72.00
43346;DHT22;28937;51.160;4.146;2022-07-17T05:10:00;20.10;72.20
43346;DHT22;28937;51.160;4.146;2022-07-17T05:12:25;20.20;71.90
43346;DHT22;28937;51.160;4.146;2022-07-17T05:14:51;20.20;71.70
43346;DHT22;28937;51.160;4.146;2022-07-17T05:17:16;20.10;71.90
43346;DHT22;28937;51.160;4.146;2022-07-17T05:19:42;20.00;71.90
43346;DHT22;28937;51.160;4.146;2022-07-17T05:22:07;20.00;72.00
43346;DHT22;28937;51.160;4.146;2022-07-17T05:24:33;20.10;71.60
43346;DHT22;28937;51.160;4.146;2022-07-17T05:26:59;20.00;71.80
43346;DHT22;28937;51.160;4.146;2022-07-17T05:29:25;20.00;72.00
43346;DHT22;28937;51.160;4.146;2022-07-17T05:31:50;20.00;71.90
43346;DHT22;28937;51.160;4.146;2022-07-17T05:34:16;20.00;71.90
43346;DHT22;28937;51.160;4.146;2022-07-17T05:36:42;20.10;71.80
43346;DHT22;28937;51.160;4.146;2022-07-17T05:39:07;20.20;71.60
43346;DHT22;28937;51.160;4.146;2022-07-17T05:41:34;20.20;71.70
43346;DHT22;28937;51.160;4.146;2022-07-17T05:43:59;20.10;71.80
43346;DHT22;28937;51.160;4.146;2022-07-17T05:46:25;20.10;71.60
43346;DHT22;28937;51.160;4.146;2022-07-17T05:48:51;20.30;71.60
43346;DHT22;28937;51.160;4.146;2022-07-17T05:51:16;20.30;71.60
43346;DHT22;28937;51.160;4.146;2022-07-17T05:53:42;20.40;71.70
43346;DHT22;28937;51.160;4.146;2022-07-17T05:56:07;20.50;71.70
43346;DHT22;28937;51.160;4.146;2022-07-17T05:58:33;20.70;71.20
43346;DHT22;28937;51.160;4.146;2022-07-17T06:00:58;20.90;70.80
43346;DHT22;28937;51.160;4.146;2022-07-17T06:03:24;21.10;70.10
43346;DHT22;28937;51.160;4.146;2022-07-17T06:05:50;21.30;69.70
43346;DHT22;28937;51.160;4.146;2022-07-17T06:08:16;21.30;69.90
43346;DHT22;28937;51.160;4.146;2022-07-17T06:10:41;21.50;68.90
43346;DHT22;28937;51.160;4.146;2022-07-17T06:13:07;21.50;69.60
43346;DHT22;28937;51.160;4.146;2022-07-17T06:15:32;21.40;70.30
43346;DHT22;28937;51.160;4.146;2022-07-17T06:18:02;21.30;71.00
43346;DHT22;28937;51.160;4.146;2022-07-17T06:20:28;21.40;70.70
43346;DHT22;28937;51.160;4.146;2022-07-17T06:22:54;21.60;69.50
43346;DHT22;28937;51.160;4.146;2022-07-17T06:25:19;21.50;70.10
43346;DHT22;28937;51.160;4.146;2022-07-17T06:27:45;21.60;70.40
43346;DHT22;28937;51.160;4.146;2022-07-17T06:30:12;21.60;70.20
43346;DHT22;28937;51.160;4.146;2022-07-17T06:32:38;21.70;69.60
43346;DHT22;28937;51.160;4.146;2022-07-17T06:35:04;21.90;69.10
43346;DHT22;28937;51.160;4.146;2022-07-17T06:37:30;21.90;68.40
43346;DHT22;28937;51.160;4.146;2022-07-17T06:39:56;22.10;67.70
43346;DHT22;28937;51.160;4.146;2022-07-17T06:42:21;22.10;68.20
43346;DHT22;28937;51.160;4.146;2022-07-17T06:44:47;22.20;67.80
43346;DHT22;28937;51.160;4.146;2022-07-17T06:47:12;22.30;67.20
43346;DHT22;28937;51.160;4.146;2022-07-17T06:49:38;22.40;66.30
43346;DHT22;28937;51.160;4.146;2022-07-17T06:52:04;22.30;67.00
43346;DHT22;28937;51.160;4.146;2022-07-17T06:54:29;22.50;66.00
43346;DHT22;28937;51.160;4.146;2022-07-17T06:56:55;22.60;65.80
43346;DHT22;28937;51.160;4.146;2022-07-17T06:59:21;22.70;65.30
43346;DHT22;28937;51.160;4.146;2022-07-17T07:01:46;22.70;65.00
43346;DHT22;28937;51.160;4.146;2022-07-17T07:04:12;22.80;64.70
43346;DHT22;28937;51.160;4.146;2022-07-17T07:06:38;22.90;64.20
43346;DHT22;28937;51.160;4.146;2022-07-17T07:09:03;22.90;64.20
43346;DHT22;28937;51.160;4.146;2022-07-17T07:11:29;23.00;64.50
43346;DHT22;28937;51.160;4.146;2022-07-17T07:13:54;23.00;65.20
43346;DHT22;28937;51.160;4.146;2022-07-17T07:16:20;22.90;65.70
43346;DHT22;28937;51.160;4.146;2022-07-17T07:18:46;23.00;64.80
43346;DHT22;28937;51.160;4.146;2022-07-17T07:21:12;23.00;65.00
43346;DHT22;28937;51.160;4.146;2022-07-17T07:23:38;23.10;65.10
43346;DHT22;28937;51.160;4.146;2022-07-17T07:26:03;23.30;62.50
43346;DHT22;28937;51.160;4.146;2022-07-17T07:28:29;23.40;62.50
43346;DHT22;28937;51.160;4.146;2022-07-17T07:30:54;23.40;62.60
43346;DHT22;28937;51.160;4.146;2022-07-17T07:33:20;23.60;62.10
43346;DHT22;28937;51.160;4.146;2022-07-17T07:35:46;23.60;62.20
43346;DHT22;28937;51.160;4.146;2022-07-17T07:38:15;23.60;63.20
43346;DHT22;28937;51.160;4.146;2022-07-17T07:40:40;23.60;62.10
43346;DHT22;28937;51.160;4.146;2022-07-17T07:43:06;23.70;62.10
43346;DHT22;28937;51.160;4.146;2022-07-17T07:45:31;23.80;61.50
43346;DHT22;28937;51.160;4.146;2022-07-17T07:47:57;23.80;61.80
43346;DHT22;28937;51.160;4.146;2022-07-17T07:50:25;23.90;61.20
43346;DHT22;28937;51.160;4.146;2022-07-17T07:52:51;23.90;61.50
43346;DHT22;28937;51.160;4.146;2022-07-17T07:55:17;24.00;61.00
43346;DHT22;28937;51.160;4.146;2022-07-17T07:57:43;23.90;61.90
43346;DHT22;28937;51.160;4.146;2022-07-17T08:00:10;23.80;62.90
43346;DHT22;28937;51.160;4.146;2022-07-17T08:02:36;23.90;62.20
43346;DHT22;28937;51.160;4.146;2022-07-17T08:05:01;23.80;62.80
43346;DHT22;28937;51.160;4.146;2022-07-17T08:07:28;23.80;63.40
43346;DHT22;28937;51.160;4.146;2022-07-17T08:09:54;23.80;63.20
43346;DHT22;28937;51.160;4.146;2022-07-17T08:12:20;23.80;63.00
43346;DHT22;28937;51.160;4.146;2022-07-17T08:14:46;23.80;62.90
43346;DHT22;28937;51.160;4.146;2022-07-17T08:17:11;23.90;62.90
43346;DHT22;28937;51.160;4.146;2022-07-17T08:19:37;23.90;62.80
43346;DHT22;28937;51.160;4.146;2022-07-17T08:22:02;23.90;62.80
43346;DHT22;28937;51.160;4.146;2022-07-17T08:24:28;23.90;62.80
43346;DHT22;28937;51.160;4.146;2022-07-17T08:26:53;24.00;62.90
43346;DHT22;28937;51.160;4.146;2022-07-17T08:29:19;24.00;62.80
43346;DHT22;28937;51.160;4.146;2022-07-17T08:31:45;24.10;62.40
43346;DHT22;28937;51.160;4.146;2022-07-17T08:34:10;24.10;62.40
43346;DHT22;28937;51.160;4.146;2022-07-17T08:36:36;24.10;62.20
43346;DHT22;28937;51.160;4.146;2022-07-17T08:39:02;24.10;62.20
43346;DHT22;28937;51.160;4.146;2022-07-17T08:41:29;24.20;62.20
43346;DHT22;28937;51.160;4.146;2022-07-17T08:43:55;24.20;62.40
43346;DHT22;28937;51.160;4.146;2022-07-17T08:46:23;24.20;62.10
43346;DHT22;28937;51.160;4.146;2022-07-17T08:48:49;24.20;61.90
43346;DHT22;28937;51.160;4.146;2022-07-17T08:51:18;24.30;62.00
43346;DHT22;28937;51.160;4.146;2022-07-17T08:53:44;24.30;62.10
43346;DHT22;28937;51.160;4.146;2022-07-17T08:56:10;24.30;62.10
43346;DHT22;28937;51.160;4.146;2022-07-17T08:58:35;24.30;62.20
43346;DHT22;28937;51.160;4.146;2022-07-17T09:01:02;24.30;62.50
43346;DHT22;28937;51.160;4.146;2022-07-17T09:03:28;24.30;62.20
43346;DHT22;28937;51.160;4.146;2022-07-17T09:05:53;24.30;62.20
43346;DHT22;28937;51.160;4.146;2022-07-17T09:08:21;24.50;61.60
43346;DHT22;28937;51.160;4.146;2022-07-17T09:10:50;24.40;61.90
43346;DHT22;28937;51.160;4.146;2022-07-17T09:13:25;24.40;62.20
43346;DHT22;28937;51.160;4.146;2022-07-17T09:15:55;24.40;62.10
43346;DHT22;28937;51.160;4.146;2022-07-17T09:18:21;24.60;59.30
43346;DHT22;28937;51.160;4.146;2022-07-17T09:20:55;24.60;60.30
43346;DHT22;28937;51.160;4.146;2022-07-17T09:23:22;24.60;61.10
43346;DHT22;28937;51.160;4.146;2022-07-17T09:25:51;24.50;61.70
43346;DHT22;28937;51.160;4.146;2022-07-17T09:28:17;24.50;61.10
43346;DHT22;28937;51.160;4.146;2022-07-17T09:30:45;24.60;60.60
43346;DHT22;28937;51.160;4.146;2022-07-17T09:33:33;24.60;61.10
43346;DHT22;28937;51.160;4.146;2022-07-17T09:36:10;24.60;61.40
43346;DHT22;28937;51.160;4.146;2022-07-17T09:38:39;24.60;60.30
43346;DHT22;28937;51.160;4.146;2022-07-17T09:41:08;24.70;59.70
43346;DHT22;28937;51.160;4.146;2022-07-17T09:44:12;24.70;59.70
43346;DHT22;28937;51.160;4.146;2022-07-17T09:46:37;24.70;60.50
43346;DHT22;28937;51.160;4.146;2022-07-17T09:49:06;24.60;60.70
43346;DHT22;28937;51.160;4.146;2022-07-17T09:51:37;24.50;61.40
43346;DHT22;28937;51.160;4.146;2022-07-17T09:54:05;24.60;61.30
43346;DHT22;28937;51.160;4.146;2022-07-17T09:56:34;24.70;59.80
43346;DHT22;28937;51.160;4.146;2022-07-17T09:59:02;24.60;60.70
43346;DHT22;28937;51.160;4.146;2022-07-17T10:01:28;24.70;59.20
43346;DHT22;28937;51.160;4.146;2022-07-17T10:03:54;24.80;59.60
43346;DHT22;28937;51.160;4.146;2022-07-17T10:06:21;24.80;58.10
43346;DHT22;28937;51.160;4.146;2022-07-17T10:08:47;24.80;60.30
43346;DHT22;28937;51.160;4.146;2022-07-17T10:11:14;24.70;60.70
43346;DHT22;28937;51.160;4.146;2022-07-17T10:13:46;24.60;61.30
43346;DHT22;28937;51.160;4.146;2022-07-17T10:16:12;24.70;61.10
43346;DHT22;28937;51.160;4.146;2022-07-17T10:18:41;24.60;61.40
43346;DHT22;28937;51.160;4.146;2022-07-17T10:23:36;24.80;59.90
43346;DHT22;28937;51.160;4.146;2022-07-17T10:26:02;24.80;60.60
43346;DHT22;28937;51.160;4.146;2022-07-17T10:31:05;24.80;60.30
43346;DHT22;28937;51.160;4.146;2022-07-17T10:33:31;24.80;60.30
43346;DHT22;28937;51.160;4.146;2022-07-17T10:35:56;24.80;59.30
43346;DHT22;28937;51.160;4.146;2022-07-17T10:38:26;24.80;59.90
43346;DHT22;28937;51.160;4.146;2022-07-17T10:41:02;24.80;61.10
43346;DHT22;28937;51.160;4.146;2022-07-17T10:43:42;24.80;59.80
43346;DHT22;28937;51.160;4.146;2022-07-17T10:46:08;24.80;60.70
43346;DHT22;28937;51.160;4.146;2022-07-17T10:48:33;24.80;61.00
43346;DHT22;28937;51.160;4.146;2022-07-17T10:50:59;24.80;61.30
43346;DHT22;28937;51.160;4.146;2022-07-17T10:53:34;24.80;61.30
43346;DHT22;28937;51.160;4.146;2022-07-17T10:58:40;24.90;58.90
43346;DHT22;28937;51.160;4.146;2022-07-17T11:01:13;24.90;57.80
43346;DHT22;28937;51.160;4.146;2022-07-17T11:06:32;24.90;59.40
43346;DHT22;28937;51.160;4.146;2022-07-17T11:09:10;25.00;58.90
43346;DHT22;28937;51.160;4.146;2022-07-17T11:11:39;25.00;57.20
43346;DHT22;28937;51.160;4.146;2022-07-17T11:16:59;25.00;59.00
43346;DHT22;28937;51.160;4.146;2022-07-17T11:21:54;25.00;60.60
43346;DHT22;28937;51.160;4.146;2022-07-17T11:24:20;25.00;58.60
43346;DHT22;28937;51.160;4.146;2022-07-17T11:26:49;25.00;58.20
43346;DHT22;28937;51.160;4.146;2022-07-17T11:29:14;25.10;57.70
43346;DHT22;28937;51.160;4.146;2022-07-17T11:31:41;25.10;58.60
43346;DHT22;28937;51.160;4.146;2022-07-17T11:34:08;25.10;57.00
43346;DHT22;28937;51.160;4.146;2022-07-17T11:36:43;25.10;57.40
43346;DHT22;28937;51.160;4.146;2022-07-17T11:39:17;25.10;56.20
43346;DHT22;28937;51.160;4.146;2022-07-17T11:41:48;25.10;56.70
43346;DHT22;28937;51.160;4.146;2022-07-17T11:44:20;25.20;57.90
43346;DHT22;28937;51.160;4.146;2022-07-17T11:46:49;25.20;58.00
43346;DHT22;28937;51.160;4.146;2022-07-17T11:49:29;25.20;58.00
43346;DHT22;28937;51.160;4.146;2022-07-17T11:51:59;25.20;56.40
43346;DHT22;28937;51.160;4.146;2022-07-17T11:54:25;25.20;59.10
43346;DHT22;28937;51.160;4.146;2022-07-17T11:56:53;25.20;55.80
43346;DHT22;28937;51.160;4.146;2022-07-17T11:59:31;25.20;55.30
43346;DHT22;28937;51.160;4.146;2022-07-17T12:02:05;25.20;58.80
43346;DHT22;28937;51.160;4.146;2022-07-17T12:04:31;25.20;57.30
43346;DHT22;28937;51.160;4.146;2022-07-17T12:07:01;25.20;58.00
43346;DHT22;28937;51.160;4.146;2022-07-17T12:09:28;25.20;55.30
43346;DHT22;28937;51.160;4.146;2022-07-17T12:11:54;25.20;58.60
43346;DHT22;28937;51.160;4.146;2022-07-17T12:14:20;25.20;56.20
43346;DHT22;28937;51.160;4.146;2022-07-17T12:16:46;25.20;55.90
43346;DHT22;28937;51.160;4.146;2022-07-17T12:19:14;25.20;56.50
43346;DHT22;28937;51.160;4.146;2022-07-17T12:22:00;25.20;58.70
43346;DHT22;28937;51.160;4.146;2022-07-17T12:24:40;25.20;55.60
43346;DHT22;28937;51.160;4.146;2022-07-17T12:27:09;25.20;58.00
43346;DHT22;28937;51.160;4.146;2022-07-17T12:29:35;25.20;59.20
43346;DHT22;28937;51.160;4.146;2022-07-17T12:32:02;25.10;59.80
43346;DHT22;28937;51.160;4.146;2022-07-17T12:34:28;25.10;60.10
43346;DHT22;28937;51.160;4.146;2022-07-17T12:36:53;25.10;60.00
43346;DHT22;28937;51.160;4.146;2022-07-17T12:39:19;25.20;58.40
43346;DHT22;28937;51.160;4.146;2022-07-17T12:41:46;25.20;57.80
43346;DHT22;28937;51.160;4.146;2022-07-17T12:44:11;25.30;58.20
43346;DHT22;28937;51.160;4.146;2022-07-17T12:46:37;25.20;57.10
43346;DHT22;28937;51.160;4.146;2022-07-17T12:49:03;25.30;58.50
43346;DHT22;28937;51.160;4.146;2022-07-17T12:51:28;25.20;59.10
43346;DHT22;28937;51.160;4.146;2022-07-17T12:53:55;25.30;57.60
43346;DHT22;28937;51.160;4.146;2022-07-17T12:56:21;25.30;57.70
43346;DHT22;28937;51.160;4.146;2022-07-17T12:58:47;25.30;59.30
43346;DHT22;28937;51.160;4.146;2022-07-17T13:01:12;25.30;58.10
43346;DHT22;28937;51.160;4.146;2022-07-17T13:03:38;25.30;57.90
43346;DHT22;28937;51.160;4.146;2022-07-17T13:06:04;25.30;56.40
43346;DHT22;28937;51.160;4.146;2022-07-17T13:08:30;25.30;57.80
43346;DHT22;28937;51.160;4.146;2022-07-17T13:10:56;25.30;58.70
43346;DHT22;28937;51.160;4.146;2022-07-17T13:13:23;25.30;59.10
43346;DHT22;28937;51.160;4.146;2022-07-17T13:15:48;25.30;59.20
43346;DHT22;28937;51.160;4.146;2022-07-17T13:18:14;25.30;59.40
43346;DHT22;28937;51.160;4.146;2022-07-17T13:20:40;25.30;59.30
43346;DHT22;28937;51.160;4.146;2022-07-17T13:23:05;25.30;59.70
43346;DHT22;28937;51.160;4.146;2022-07-17T13:25:31;25.30;57.30
43346;DHT22;28937;51.160;4.146;2022-07-17T13:27:58;25.40;54.70
43346;DHT22;28937;51.160;4.146;2022-07-17T13:30:23;25.40;53.00
43346;DHT22;28937;51.160;4.146;2022-07-17T13:32:49;25.40;57.60
43346;DHT22;28937;51.160;4.146;2022-07-17T13:35:15;25.30;59.10
43346;DHT22;28937;51.160;4.146;2022-07-17T13:37:43;25.30;54.70
43346;DHT22;28937;51.160;4.146;2022-07-17T13:40:09;25.30;58.20
43346;DHT22;28937;51.160;4.146;2022-07-17T13:42:35;25.30;58.60
43346;DHT22;28937;51.160;4.146;2022-07-17T13:45:02;25.40;52.20
43346;DHT22;28937;51.160;4.146;2022-07-17T13:47:28;25.40;52.00
43346;DHT22;28937;51.160;4.146;2022-07-17T13:49:54;25.40;54.90
43346;DHT22;28937;51.160;4.146;2022-07-17T13:52:19;25.40;55.00
43346;DHT22;28937;51.160;4.146;2022-07-17T13:54:45;25.40;54.90
43346;DHT22;28937;51.160;4.146;2022-07-17T13:57:10;25.50;52.10
43346;DHT22;28937;51.160;4.146;2022-07-17T13:59:36;25.50;56.50
43346;DHT22;28937;51.160;4.146;2022-07-17T14:02:02;25.40;57.70
43346;DHT22;28937;51.160;4.146;2022-07-17T14:04:27;25.50;57.10
43346;DHT22;28937;51.160;4.146;2022-07-17T14:06:53;25.40;57.90
43346;DHT22;28937;51.160;4.146;2022-07-17T14:09:18;25.50;55.00
43346;DHT22;28937;51.160;4.146;2022-07-17T14:11:44;25.50;56.60
43346;DHT22;28937;51.160;4.146;2022-07-17T14:14:09;25.50;57.10
43346;DHT22;28937;51.160;4.146;2022-07-17T14:16:35;25.50;56.80
43346;DHT22;28937;51.160;4.146;2022-07-17T14:19:01;25.50;54.20
43346;DHT22;28937;51.160;4.146;2022-07-17T14:21:32;25.60;52.70
43346;DHT22;28937;51.160;4.146;2022-07-17T14:23:58;25.60;55.60
43346;DHT22;28937;51.160;4.146;2022-07-17T14:26:24;25.60;55.10
43346;DHT22;28937;51.160;4.146;2022-07-17T14:28:50;25.50;57.20
43346;DHT22;28937;51.160;4.146;2022-07-17T14:31:16;25.50;56.60
43346;DHT22;28937;51.160;4.146;2022-07-17T14:33:42;25.60;56.40
43346;DHT22;28937;51.160;4.146;2022-07-17T14:36:09;25.60;55.20
43346;DHT22;28937;51.160;4.146;2022-07-17T14:38:35;25.60;56.20
43346;DHT22;28937;51.160;4.146;2022-07-17T14:41:00;25.60;57.30
43346;DHT22;28937;51.160;4.146;2022-07-17T14:43:27;25.50;58.00
43346;DHT22;28937;51.160;4.146;2022-07-17T14:45:52;25.60;56.80
43346;DHT22;28937;51.160;4.146;2022-07-17T14:48:19;25.60;55.30
43346;DHT22;28937;51.160;4.146;2022-07-17T14:50:44;25.60;57.10
43346;DHT22;28937;51.160;4.146;2022-07-17T14:53:10;25.60;55.60
43346;DHT22;28937;51.160;4.146;2022-07-17T14:55:36;25.70;56.30
43346;DHT22;28937;51.160;4.146;2022-07-17T14:58:01;25.60;55.60
43346;DHT22;28937;51.160;4.146;2022-07-17T15:00:27;25.70;53.50
43346;DHT22;28937;51.160;4.146;2022-07-17T15:02:53;25.70;50.90
43346;DHT22;28937;51.160;4.146;2022-07-17T15:05:18;25.70;55.10
43346;DHT22;28937;51.160;4.146;2022-07-17T15:07:45;25.70;57.20
43346;DHT22;28937;51.160;4.146;2022-07-17T15:10:11;25.70;54.90
43346;DHT22;28937;51.160;4.146;2022-07-17T15:12:37;25.70;54.50
43346;DHT22;28937;51.160;4.146;2022-07-17T15:15:03;25.70;52.70
43346;DHT22;28937;51.160;4.146;2022-07-17T15:17:29;25.80;53.20
43346;DHT22;28937;51.160;4.146;2022-07-17T15:19:55;25.70;54.80
43346;DHT22;28937;51.160;4.146;2022-07-17T15:22:21;25.70;57.00
43346;DHT22;28937;51.160;4.146;2022-07-17T15:24:52;25.70;57.90
43346;DHT22;28937;51.160;4.146;2022-07-17T15:27:20;25.70;57.50
43346;DHT22;28937;51.160;4.146;2022-07-17T15:29:46;25.80;54.70
43346;DHT22;28937;51.160;4.146;2022-07-17T15:32:11;25.80;55.10
43346;DHT22;28937;51.160;4.146;2022-07-17T15:34:37;25.80;55.80
43346;DHT22;28937;51.160;4.146;2022-07-17T15:37:04;25.80;54.60
43346;DHT22;28937;51.160;4.146;2022-07-17T15:39:29;25.80;50.60
43346;DHT22;28937;51.160;4.146;2022-07-17T15:41:55;25.80;53.50